sensor_id;sensor_type;location;lat;lon;timestamp;pressure;altitude;pressure_sealevel;temperature;humidity
72896;BME280;61036;53.224;6.554;2024-01-15T00:02:16;98665.63;;;1.80;100.00
72896;BME280;61036;53.224;6.554;2024-01-15T00:04:42;98647.09;;;1.67;100.00
72896;BME280;61036;53.224;6.554;2024-01-15T00:07:08;98612.94;;;1.50;100.00
72896;BME280;61036;53.224;6.554;2024-01-15T00:09:34;98592.59;;;1.37;100.00
72896;BME280;61036;53.224;6.554;2024-01-15T00:12:01;98561.31;;;1.30;100.00
72896;BME280;61036;53.224;6.554;2024-01-15T00:14:27;98538.56;;;1.39;100.00
72896;BME280;61036;53.224;6.554;2024-01-15T00:16:53;98519.44;;;1.33;100.00
72896;BME280;61036;53.224;6.554;2024-01-15T00:19:23;98492.13;;;1.55;100.00
72896;BME280;61036;53.224;6.554;2024-01-15T00:21:49;98471.00;;;1.54;100.00
72896;BME280;61036;53.224;6.554;2024-01-15T00:24:15;98466.28;;;1.57;100.00
72896;BME280;61036;53.224;6.554;2024-01-15T00:26:41;98459.75;;;1.50;100.00
72896;BME280;61036;53.224;6.554;2024-01-15T00:29:07;98463.63;;;1.57;100.00
72896;BME280;61036;53.224;6.554;2024-01-15T00:31:33;98458.56;;;1.54;100.00
72896;BME280;61036;53.224;6.554;2024-01-15T00:33:59;98445.25;;;1.43;100.00
72896;BME280;61036;53.224;6.554;2024-01-15T00:36:25;98439.94;;;1.43;100.00
72896;BME280;61036;53.224;6.554;2024-01-15T00:38:50;98433.66;;;1.44;100.00
72896;BME280;61036;53.224;6.554;2024-01-15T00:41:16;98423.44;;;1.51;100.00
72896;BME280;61036;53.224;6.554;2024-01-15T00:43:44;98401.31;;;1.50;100.00
72896;BME280;61036;53.224;6.554;2024-01-15T00:46:10;98386.72;;;1.56;100.00
72896;BME280;61036;53.224;6.554;2024-01-15T00:48:36;98383.47;;;1.64;100.00
72896;BME280;61036;53.224;6.554;2024-01-15T00:51:01;98377.31;;;1.74;100.00
72896;BME280;61036;53.224;6.554;2024-01-15T00:53:27;98366.09;;;1.82;100.00
72896;BME280;61036;53.224;6.554;2024-01-15T00:55:53;98365.25;;;1.81;100.00
72896;BME280;61036;53.224;6.554;2024-01-15T00:58:18;98366.44;;;1.77;100.00
72896;BME280;61036;53.224;6.554;2024-01-15T01:00:44;98364.41;;;1.70;100.00
72896;BME280;61036;53.224;6.554;2024-01-15T01:03:09;98353.31;;;1.87;100.00
72896;BME280;61036;53.224;6.554;2024-01-15T01:05:35;98343.16;;;1.70;100.00
72896;BME280;61036;53.224;6.554;2024-01-15T01:08:01;98344.34;;;1.54;100.00
72896;BME280;61036;53.224;6.554;2024-01-15T01:10:27;98332.16;;;1.52;100.00
72896;BME280;61036;53.224;6.554;2024-01-15T01:12:52;98327.44;;;1.44;100.00
72896;BME280;61036;53.224;6.554;2024-01-15T01:15:18;98311.59;;;1.31;100.00
72896;BME280;61036;53.224;6.554;2024-01-15T01:17:43;98298.22;;;1.44;100.00
72896;BME280;61036;53.224;6.554;2024-01-15T01:20:09;98276.97;;;1.55;100.00
72896;BME280;61036;53.224;6.554;2024-01-15T01:22:36;98270.81;;;1.55;100.00
72896;BME280;61036;53.224;6.554;2024-01-15T01:25:01;98258.28;;;1.57;100.00
72896;BME280;61036;53.224;6.554;2024-01-15T01:27:27;98244.47;;;1.74;100.00
72896;BME280;61036;53.224;6.554;2024-01-15T01:29:53;98224.28;;;1.83;100.00
72896;BME280;61036;53.224;6.554;2024-01-15T01:32:18;98232.88;;;1.87;100.00
72896;BME280;61036;53.224;6.554;2024-01-15T01:34:44;98220.84;;;2.03;100.00
72896;BME280;61036;53.224;6.554;2024-01-15T01:37:13;98229.34;;;1.97;100.00
72896;BME280;61036;53.224;6.554;2024-01-15T01:39:42;98242.63;;;1.86;100.00
72896;BME280;61036;53.224;6.554;2024-01-15T01:42:08;98253.41;;;1.73;100.00
72896;BME280;61036;53.224;6.554;2024-01-15T01:44:33;98247.50;;;1.81;100.00
72896;BME280;61036;53.224;6.554;2024-01-15T01:46:59;98228.84;;;1.92;100.00
72896;BME280;61036;53.224;6.554;2024-01-15T01:49:26;98237.81;;;1.91;100.00
72896;BME280;61036;53.224;6.554;2024-01-15T01:51:52;98247.75;;;1.78;100.00
72896;BME280;61036;53.224;6.554;2024-01-15T01:54:19;98240.94;;;1.96;100.00
72896;BME280;61036;53.224;6.554;2024-01-15T01:56:45;98248.53;;;2.01;100.00
72896;BME280;61036;53.224;6.554;2024-01-15T01:59:12;98260.72;;;2.15;100.00
72896;BME280;61036;53.224;6.554;2024-01-15T02:01:38;98294.78;;;1.98;100.00
72896;BME280;61036;53.224;6.554;2024-01-15T02:04:04;98298.41;;;2.09;100.00
72896;BME280;61036;53.224;6.554;2024-01-15T02:06:30;98320.16;;;2.14;100.00
72896;BME280;61036;53.224;6.554;2024-01-15T02:08:55;98336.91;;;2.25;100.00
72896;BME280;61036;53.224;6.554;2024-01-15T02:11:21;98346.09;;;2.33;100.00
72896;BME280;61036;53.224;6.554;2024-01-15T02:13:47;98370.66;;;2.25;100.00
72896;BME280;61036;53.224;6.554;2024-01-15T02:16:13;98391.91;;;2.25;100.00
72896;BME280;61036;53.224;6.554;2024-01-15T02:18:42;98401.38;;;2.29;100.00
72896;BME280;61036;53.224;6.554;2024-01-15T02:21:08;98415.13;;;2.34;100.00
72896;BME280;61036;53.224;6.554;2024-01-15T02:23:34;98427.81;;;2.31;100.00
72896;BME280;61036;53.224;6.554;2024-01-15T02:26:00;98424.06;;;2.33;100.00
72896;BME280;61036;53.224;6.554;2024-01-15T02:28:26;98448.59;;;2.37;100.00
72896;BME280;61036;53.224;6.554;2024-01-15T02:30:52;98466.28;;;2.26;100.00
72896;BME280;61036;53.224;6.554;2024-01-15T02:33:17;98473.53;;;2.36;100.00
72896;BME280;61036;53.224;6.554;2024-01-15T02:35:43;98476.28;;;2.34;100.00
72896;BME280;61036;53.224;6.554;2024-01-15T02:38:09;98474.72;;;2.32;100.00
72896;BME280;61036;53.224;6.554;2024-01-15T02:40:35;98470.13;;;2.34;100.00
72896;BME280;61036;53.224;6.554;2024-01-15T02:43:01;98465.53;;;2.24;100.00
72896;BME280;61036;53.224;6.554;2024-01-15T02:45:27;98457.66;;;2.34;100.00
72896;BME280;61036;53.224;6.554;2024-01-15T02:47:52;98448.00;;;2.33;100.00
72896;BME280;61036;53.224;6.554;2024-01-15T02:50:18;98442.72;;;2.11;100.00
72896;BME280;61036;53.224;6.554;2024-01-15T02:52:44;98430.59;;;2.18;100.00
72896;BME280;61036;53.224;6.554;2024-01-15T02:55:09;98434.34;;;2.04;100.00
72896;BME280;61036;53.224;6.554;2024-01-15T02:57:35;98433.25;;;1.95;100.00
72896;BME280;61036;53.224;6.554;2024-01-15T03:00:01;98440.53;;;1.93;100.00
72896;BME280;61036;53.224;6.554;2024-01-15T03:02:26;98440.16;;;2.09;100.00
72896;BME280;61036;53.224;6.554;2024-01-15T03:04:52;98442.56;;;2.12;100.00
72896;BME280;61036;53.224;6.554;2024-01-15T03:07:17;98455.75;;;2.14;100.00
72896;BME280;61036;53.224;6.554;2024-01-15T03:09:43;98467.47;;;2.11;100.00
72896;BME280;61036;53.224;6.554;2024-01-15T03:12:09;98475.06;;;2.16;100.00
72896;BME280;61036;53.224;6.554;2024-01-15T03:14:35;98478.34;;;2.19;100.00
72896;BME280;61036;53.224;6.554;2024-01-15T03:17:01;98483.66;;;2.19;100.00
72896;BME280;61036;53.224;6.554;2024-01-15T03:19:27;98485.38;;;2.20;100.00
72896;BME280;61036;53.224;6.554;2024-01-15T03:21:53;98478.59;;;2.27;100.00
72896;BME280;61036;53.224;6.554;2024-01-15T03:24:18;98480.03;;;2.32;100.00
72896;BME280;61036;53.224;6.554;2024-01-15T03:26:44;98474.59;;;2.44;100.00
72896;BME280;61036;53.224;6.554;2024-01-15T03:29:09;98480.03;;;2.43;100.00
72896;BME280;61036;53.224;6.554;2024-01-15T03:31:35;98477.25;;;2.44;100.00
72896;BME280;61036;53.224;6.554;2024-01-15T03:34:01;98477.72;;;2.49;100.00
72896;BME280;61036;53.224;6.554;2024-01-15T03:36:26;98483.53;;;2.43;100.00
72896;BME280;61036;53.224;6.554;2024-01-15T03:38:52;98481.00;;;2.42;100.00
72896;BME280;61036;53.224;6.554;2024-01-15T03:41:18;98482.00;;;2.41;100.00
72896;BME280;61036;53.224;6.554;2024-01-15T03:43:43;98491.06;;;2.38;100.00
72896;BME280;61036;53.224;6.554;2024-01-15T03:46:09;98483.41;;;2.34;100.00
72896;BME280;61036;53.224;6.554;2024-01-15T03:48:34;98472.53;;;2.48;100.00
72896;BME280;61036;53.224;6.554;2024-01-15T03:51:00;98485.25;;;2.44;100.00
72896;BME280;61036;53.224;6.554;2024-01-15T03:53:25;98485.34;;;2.54;100.00
72896;BME280;61036;53.224;6.554;2024-01-15T03:55:51;98496.34;;;2.49;100.00
72896;BME280;61036;53.224;6.554;2024-01-15T03:58:17;98501.66;;;2.49;100.00
72896;BME280;61036;53.224;6.554;2024-01-15T04:00:43;98526.72;;;2.47;100.00
72896;BME280;61036;53.224;6.554;2024-01-15T04:03:09;98523.56;;;2.53;100.00
72896;BME280;61036;53.224;6.554;2024-01-15T04:05:34;98526.00;;;2.56;100.00
72896;BME280;61036;53.224;6.554;2024-01-15T04:08:00;98523.19;;;2.46;100.00
72896;BME280;61036;53.224;6.554;2024-01-15T04:10:26;98527.31;;;2.50;100.00
72896;BME280;61036;53.224;6.554;2024-01-15T04:12:52;98540.03;;;2.47;100.00
72896;BME280;61036;53.224;6.554;2024-01-15T04:15:17;98568.19;;;2.61;100.00
72896;BME280;61036;53.224;6.554;2024-01-15T04:17:43;98585.09;;;2.48;100.00
72896;BME280;61036;53.224;6.554;2024-01-15T04:20:09;98589.94;;;2.43;100.00
72896;BME280;61036;53.224;6.554;2024-01-15T04:22:35;98586.88;;;2.25;100.00
72896;BME280;61036;53.224;6.554;2024-01-15T04:25:01;98577.34;;;2.23;100.00
72896;BME280;61036;53.224;6.554;2024-01-15T04:27:27;98563.31;;;2.21;100.00
72896;BME280;61036;53.224;6.554;2024-01-15T04:29:53;98554.84;;;2.16;100.00
72896;BME280;61036;53.224;6.554;2024-01-15T04:32:19;98562.78;;;2.04;100.00
72896;BME280;61036;53.224;6.554;2024-01-15T04:34:45;98553.97;;;2.04;100.00
72896;BME280;61036;53.224;6.554;2024-01-15T04:37:10;98555.03;;;2.01;100.00
72896;BME280;61036;53.224;6.554;2024-01-15T04:39:36;98568.19;;;1.92;100.00
72896;BME280;61036;53.224;6.554;2024-01-15T04:42:02;98573.25;;;1.83;100.00
72896;BME280;61036;53.224;6.554;2024-01-15T04:44:28;98589.75;;;1.76;100.00
72896;BME280;61036;53.224;6.554;2024-01-15T04:46:54;98590.03;;;1.84;100.00
72896;BME280;61036;53.224;6.554;2024-01-15T05:13:26;98585.25;;;1.65;100.00
72896;BME280;61036;53.224;6.554;2024-01-15T05:15:51;98591.47;;;1.53;100.00
72896;BME280;61036;53.224;6.554;2024-01-15T05:18:17;98590.22;;;1.46;100.00
72896;BME280;61036;53.224;6.554;2024-01-15T05:20:42;98584.78;;;1.47;100.00
72896;BME280;61036;53.224;6.554;2024-01-15T05:23:08;98579.69;;;1.57;100.00
72896;BME280;61036;53.224;6.554;2024-01-15T05:25:33;98579.47;;;1.47;100.00
72896;BME280;61036;53.224;6.554;2024-01-15T05:27:59;98570.22;;;1.29;100.00
72896;BME280;61036;53.224;6.554;2024-01-15T05:30:25;98562.00;;;1.21;100.00
72896;BME280;61036;53.224;6.554;2024-01-15T05:32:50;98567.44;;;1.06;100.00
72896;BME280;61036;53.224;6.554;2024-01-15T05:35:16;98555.69;;;0.98;100.00
72896;BME280;61036;53.224;6.554;2024-01-15T05:37:43;98533.91;;;1.05;100.00
72896;BME280;61036;53.224;6.554;2024-01-15T05:40:11;98529.25;;;0.96;100.00
72896;BME280;61036;53.224;6.554;2024-01-15T05:42:37;98504.47;;;0.84;100.00
72896;BME280;61036;53.224;6.554;2024-01-15T05:45:03;98495.56;;;0.85;100.00
72896;BME280;61036;53.224;6.554;2024-01-15T05:47:30;98485.03;;;0.84;100.00
72896;BME280;61036;53.224;6.554;2024-01-15T05:49:56;98475.38;;;0.83;100.00
72896;BME280;61036;53.224;6.554;2024-01-15T05:52:23;98471.91;;;0.82;100.00
72896;BME280;61036;53.224;6.554;2024-01-15T05:54:49;98462.44;;;1.02;100.00
72896;BME280;61036;53.224;6.554;2024-01-15T05:57:15;98464.56;;;1.10;100.00
72896;BME280;61036;53.224;6.554;2024-01-15T05:59:41;98469.09;;;1.32;100.00
72896;BME280;61036;53.224;6.554;2024-01-15T06:02:06;98468.03;;;1.34;100.00
72896;BME280;61036;53.224;6.554;2024-01-15T06:04:31;98474.22;;;1.46;100.00
72896;BME280;61036;53.224;6.554;2024-01-15T06:06:57;98479.91;;;1.42;100.00
72896;BME280;61036;53.224;6.554;2024-01-15T06:09:22;98492.28;;;1.30;100.00
72896;BME280;61036;53.224;6.554;2024-01-15T06:11:48;98487.44;;;1.24;100.00
72896;BME280;61036;53.224;6.554;2024-01-15T06:14:13;98498.81;;;1.13;100.00
72896;BME280;61036;53.224;6.554;2024-01-15T06:16:39;98491.84;;;1.12;100.00
72896;BME280;61036;53.224;6.554;2024-01-15T06:19:04;98487.94;;;1.05;100.00
72896;BME280;61036;53.224;6.554;2024-01-15T06:21:30;98485.50;;;1.02;100.00
72896;BME280;61036;53.224;6.554;2024-01-15T06:23:55;98481.72;;;0.93;100.00
72896;BME280;61036;53.224;6.554;2024-01-15T06:26:24;98471.91;;;1.06;100.00
72896;BME280;61036;53.224;6.554;2024-01-15T06:28:50;98464.03;;;1.05;100.00
72896;BME280;61036;53.224;6.554;2024-01-15T06:31:15;98454.50;;;1.02;100.00
72896;BME280;61036;53.224;6.554;2024-01-15T06:33:41;98433.22;;;1.15;100.00
72896;BME280;61036;53.224;6.554;2024-01-15T06:36:06;98428.16;;;1.23;100.00
72896;BME280;61036;53.224;6.554;2024-01-15T06:38:32;98439.47;;;1.49;100.00
72896;BME280;61036;53.224;6.554;2024-01-15T06:40:57;98441.25;;;1.37;100.00
72896;BME280;61036;53.224;6.554;2024-01-15T06:43:23;98446.25;;;1.18;100.00
72896;BME280;61036;53.224;6.554;2024-01-15T06:45:48;98430.19;;;1.20;100.00
72896;BME280;61036;53.224;6.554;2024-01-15T06:48:15;98408.03;;;1.21;100.00
72896;BME280;61036;53.224;6.554;2024-01-15T06:50:44;98402.47;;;1.24;100.00
72896;BME280;61036;53.224;6.554;2024-01-15T06:53:10;98391.13;;;1.22;100.00
72896;BME280;61036;53.224;6.554;2024-01-15T06:55:37;98387.34;;;1.13;100.00
72896;BME280;61036;53.224;6.554;2024-01-15T06:58:03;98375.66;;;1.16;100.00
72896;BME280;61036;53.224;6.554;2024-01-15T07:00:29;98357.94;;;1.27;100.00
72896;BME280;61036;53.224;6.554;2024-01-15T07:02:54;98371.34;;;1.26;100.00
72896;BME280;61036;53.224;6.554;2024-01-15T07:05:20;98398.47;;;1.29;100.00
72896;BME280;61036;53.224;6.554;2024-01-15T07:07:46;98380.84;;;1.17;100.00
72896;BME280;61036;53.224;6.554;2024-01-15T07:10:13;98384.59;;;1.14;100.00
72896;BME280;61036;53.224;6.554;2024-01-15T07:12:38;98391.44;;;1.06;100.00
72896;BME280;61036;53.224;6.554;2024-01-15T07:15:04;98385.50;;;1.02;100.00
72896;BME280;61036;53.224;6.554;2024-01-15T07:17:32;98380.25;;;0.89;100.00
72896;BME280;61036;53.224;6.554;2024-01-15T07:19:57;98372.59;;;0.98;100.00
72896;BME280;61036;53.224;6.554;2024-01-15T07:22:23;98374.97;;;0.89;100.00
72896;BME280;61036;53.224;6.554;2024-01-15T07:24:48;98366.53;;;0.84;100.00
72896;BME280;61036;53.224;6.554;2024-01-15T07:27:14;98369.50;;;0.80;100.00
72896;BME280;61036;53.224;6.554;2024-01-15T07:29:39;98363.00;;;0.84;100.00
72896;BME280;61036;53.224;6.554;2024-01-15T07:32:05;98353.63;;;0.91;100.00
72896;BME280;61036;53.224;6.554;2024-01-15T07:34:30;98352.84;;;0.78;100.00
72896;BME280;61036;53.224;6.554;2024-01-15T07:36:57;98344.84;;;0.90;100.00
72896;BME280;61036;53.224;6.554;2024-01-15T07:39:22;98343.25;;;0.88;100.00
72896;BME280;61036;53.224;6.554;2024-01-15T07:41:50;98350.25;;;0.89;100.00
72896;BME280;61036;53.224;6.554;2024-01-15T07:44:16;98361.00;;;0.99;100.00
72896;BME280;61036;53.224;6.554;2024-01-15T07:46:48;98367.69;;;1.16;100.00
72896;BME280;61036;53.224;6.554;2024-01-15T07:49:14;98389.25;;;1.11;100.00
72896;BME280;61036;53.224;6.554;2024-01-15T07:51:40;98389.91;;;1.14;100.00
72896;BME280;61036;53.224;6.554;2024-01-15T07:54:06;98392.44;;;1.16;100.00
72896;BME280;61036;53.224;6.554;2024-01-15T07:56:32;98409.19;;;1.05;100.00
72896;BME280;61036;53.224;6.554;2024-01-15T07:58:58;98412.91;;;1.03;100.00
72896;BME280;61036;53.224;6.554;2024-01-15T08:01:24;98407.38;;;1.06;100.00
72896;BME280;61036;53.224;6.554;2024-01-15T08:03:49;98418.25;;;0.90;100.00
72896;BME280;61036;53.224;6.554;2024-01-15T08:06:15;98408.16;;;0.95;100.00
72896;BME280;61036;53.224;6.554;2024-01-15T08:08:40;98392.63;;;1.02;100.00
72896;BME280;61036;53.224;6.554;2024-01-15T08:11:06;98387.66;;;0.97;100.00
72896;BME280;61036;53.224;6.554;2024-01-15T08:13:31;98382.97;;;1.01;100.00
72896;BME280;61036;53.224;6.554;2024-01-15T08:15:57;98375.69;;;0.91;100.00
72896;BME280;61036;53.224;6.554;2024-01-15T08:18:22;98356.09;;;1.05;100.00
72896;BME280;61036;53.224;6.554;2024-01-15T08:20:48;98359.19;;;0.99;100.00
72896;BME280;61036;53.224;6.554;2024-01-15T08:23:13;98350.97;;;0.91;100.00
72896;BME280;61036;53.224;6.554;2024-01-15T08:25:39;98340.28;;;1.04;100.00
72896;BME280;61036;53.224;6.554;2024-01-15T08:28:04;98334.88;;;1.17;100.00
72896;BME280;61036;53.224;6.554;2024-01-15T08:30:30;98344.06;;;1.24;100.00
72896;BME280;61036;53.224;6.554;2024-01-15T08:32:56;98344.94;;;1.35;100.00
72896;BME280;61036;53.224;6.554;2024-01-15T08:35:22;98354.72;;;1.46;100.00
72896;BME280;61036;53.224;6.554;2024-01-15T08:37:53;98347.72;;;1.68;100.00
72896;BME280;61036;53.224;6.554;2024-01-15T08:40:19;98361.88;;;1.79;100.00
72896;BME280;61036;53.224;6.554;2024-01-15T08:42:44;98390.97;;;1.70;100.00
72896;BME280;61036;53.224;6.554;2024-01-15T08:45:11;98408.00;;;1.67;100.00
72896;BME280;61036;53.224;6.554;2024-01-15T08:47:36;98441.69;;;1.67;100.00
72896;BME280;61036;53.224;6.554;2024-01-15T08:50:03;98458.72;;;1.75;100.00
72896;BME280;61036;53.224;6.554;2024-01-15T08:52:29;98489.84;;;1.62;100.00
72896;BME280;61036;53.224;6.554;2024-01-15T08:54:56;98493.41;;;1.50;100.00
72896;BME280;61036;53.224;6.554;2024-01-15T08:57:21;98495.31;;;1.36;100.00
72896;BME280;61036;53.224;6.554;2024-01-15T08:59:47;98491.31;;;1.31;100.00
72896;BME280;61036;53.224;6.554;2024-01-15T09:02:13;98472.81;;;1.29;100.00
72896;BME280;61036;53.224;6.554;2024-01-15T09:04:38;98461.03;;;1.33;100.00
72896;BME280;61036;53.224;6.554;2024-01-15T09:07:04;98445.00;;;1.46;100.00
72896;BME280;61036;53.224;6.554;2024-01-15T09:09:29;98436.84;;;1.60;100.00
72896;BME280;61036;53.224;6.554;2024-01-15T09:11:55;98435.25;;;1.58;100.00
72896;BME280;61036;53.224;6.554;2024-01-15T09:14:20;98434.28;;;1.48;100.00
72896;BME280;61036;53.224;6.554;2024-01-15T09:16:47;98442.97;;;1.50;100.00
72896;BME280;61036;53.224;6.554;2024-01-15T09:19:13;98434.28;;;1.59;100.00
72896;BME280;61036;53.224;6.554;2024-01-15T09:21:39;98438.38;;;1.52;100.00
72896;BME280;61036;53.224;6.554;2024-01-15T09:24:05;98429.13;;;1.80;100.00
72896;BME280;61036;53.224;6.554;2024-01-15T09:26:30;98444.38;;;1.78;100.00
72896;BME280;61036;53.224;6.554;2024-01-15T09:28:57;98459.13;;;1.47;100.00
72896;BME280;61036;53.224;6.554;2024-01-15T09:31:23;98445.50;;;1.51;100.00
72896;BME280;61036;53.224;6.554;2024-01-15T09:33:49;98444.44;;;1.54;100.00
72896;BME280;61036;53.224;6.554;2024-01-15T09:36:16;98447.34;;;1.51;100.00
72896;BME280;61036;53.224;6.554;2024-01-15T09:38:42;98444.22;;;1.68;100.00
72896;BME280;61036;53.224;6.554;2024-01-15T09:41:07;98445.88;;;1.58;100.00
72896;BME280;61036;53.224;6.554;2024-01-15T09:43:33;98424.78;;;1.68;100.00
72896;BME280;61036;53.224;6.554;2024-01-15T09:45:59;98418.16;;;2.07;100.00
72896;BME280;61036;53.224;6.554;2024-01-15T09:48:24;98378.50;;;3.13;100.00
72896;BME280;61036;53.224;6.554;2024-01-15T09:50:50;98394.34;;;3.57;100.00
72896;BME280;61036;53.224;6.554;2024-01-15T09:53:17;98445.94;;;3.03;100.00
72896;BME280;61036;53.224;6.554;2024-01-15T09:55:43;98470.16;;;2.88;100.00
72896;BME280;61036;53.224;6.554;2024-01-15T09:58:08;98489.97;;;2.41;100.00
72896;BME280;61036;53.224;6.554;2024-01-15T10:00:35;98513.25;;;2.03;100.00
72896;BME280;61036;53.224;6.554;2024-01-15T10:03:04;98507.19;;;2.01;100.00
72896;BME280;61036;53.224;6.554;2024-01-15T10:05:30;98489.56;;;2.00;100.00
72896;BME280;61036;53.224;6.554;2024-01-15T10:07:56;98488.00;;;1.87;100.00
72896;BME280;61036;53.224;6.554;2024-01-15T10:10:22;98473.28;;;2.05;100.00
72896;BME280;61036;53.224;6.554;2024-01-15T10:12:48;98465.78;;;2.33;100.00
72896;BME280;61036;53.224;6.554;2024-01-15T10:15:14;98481.09;;;2.06;100.00
72896;BME280;61036;53.224;6.554;2024-01-15T10:17:40;98480.47;;;1.92;100.00
72896;BME280;61036;53.224;6.554;2024-01-15T10:20:10;98455.88;;;1.90;100.00
72896;BME280;61036;53.224;6.554;2024-01-15T10:22:40;98441.38;;;2.05;100.00
72896;BME280;61036;53.224;6.554;2024-01-15T10:25:06;98443.19;;;1.93;100.00
72896;BME280;61036;53.224;6.554;2024-01-15T10:27:31;98412.84;;;2.18;100.00
72896;BME280;61036;53.224;6.554;2024-01-15T10:30:00;98415.03;;;2.02;100.00
72896;BME280;61036;53.224;6.554;2024-01-15T10:32:28;98388.41;;;2.47;100.00
72896;BME280;61036;53.224;6.554;2024-01-15T10:34:54;98353.06;;;3.30;100.00
72896;BME280;61036;53.224;6.554;2024-01-15T10:37:20;98360.13;;;3.31;100.00
72896;BME280;61036;53.224;6.554;2024-01-15T10:39:49;98366.16;;;3.64;100.00
72896;BME280;61036;53.224;6.554;2024-01-15T10:42:15;98388.25;;;3.76;100.00
72896;BME280;61036;53.224;6.554;2024-01-15T10:44:41;98428.63;;;3.29;100.00
72896;BME280;61036;53.224;6.554;2024-01-15T10:47:08;98430.59;;;2.95;100.00
72896;BME280;61036;53.224;6.554;2024-01-15T10:49:34;98452.31;;;2.68;100.00
72896;BME280;61036;53.224;6.554;2024-01-15T10:52:03;98455.25;;;2.54;100.00
72896;BME280;61036;53.224;6.554;2024-01-15T10:54:29;98458.28;;;2.26;100.00
72896;BME280;61036;53.224;6.554;2024-01-15T10:56:58;98458.53;;;2.23;100.00
72896;BME280;61036;53.224;6.554;2024-01-15T10:59:24;98461.06;;;2.02;100.00
72896;BME280;61036;53.224;6.554;2024-01-15T11:01:53;98443.78;;;2.19;100.00
72896;BME280;61036;53.224;6.554;2024-01-15T11:04:20;98445.97;;;2.03;100.00
72896;BME280;61036;53.224;6.554;2024-01-15T11:06:51;98429.75;;;2.28;100.00
72896;BME280;61036;53.224;6.554;2024-01-15T11:09:18;98417.41;;;2.50;100.00
72896;BME280;61036;53.224;6.554;2024-01-15T11:11:45;98423.97;;;2.23;100.00
72896;BME280;61036;53.224;6.554;2024-01-15T11:17:03;98419.72;;;2.32;100.00
72896;BME280;61036;53.224;6.554;2024-01-15T11:19:37;98422.88;;;2.15;100.00
72896;BME280;61036;53.224;6.554;2024-01-15T11:22:09;98422.75;;;2.27;100.00
72896;BME280;61036;53.224;6.554;2024-01-15T11:24:39;98420.91;;;2.28;100.00
72896;BME280;61036;53.224;6.554;2024-01-15T11:27:06;98421.75;;;2.51;100.00
72896;BME280;61036;53.224;6.554;2024-01-15T11:29:36;98418.50;;;2.91;100.00
72896;BME280;61036;53.224;6.554;2024-01-15T11:32:08;98445.38;;;2.77;100.00
72896;BME280;61036;53.224;6.554;2024-01-15T11:34:56;98454.50;;;2.74;100.00
72896;BME280;61036;53.224;6.554;2024-01-15T11:37:56;98482.56;;;2.33;100.00
72896;BME280;61036;53.224;6.554;2024-01-15T11:40:17;98475.06;;;2.49;100.00
72896;BME280;61036;53.224;6.554;2024-01-15T11:42:44;98467.47;;;2.45;100.00
72896;BME280;61036;53.224;6.554;2024-01-15T11:45:10;98477.97;;;2.46;100.00
72896;BME280;61036;53.224;6.554;2024-01-15T11:50:23;98498.03;;;2.28;100.00
72896;BME280;61036;53.224;6.554;2024-01-15T11:53:00;98509.50;;;2.06;100.00
72896;BME280;61036;53.224;6.554;2024-01-15T11:55:41;98503.41;;;1.70;100.00
72896;BME280;61036;53.224;6.554;2024-01-15T11:58:10;98493.19;;;1.53;100.00
72896;BME280;61036;53.224;6.554;2024-01-15T12:03:09;98467.38;;;1.55;100.00
72896;BME280;61036;53.224;6.554;2024-01-15T12:05:37;98440.56;;;1.58;100.00
72896;BME280;61036;53.224;6.554;2024-01-15T12:08:03;98438.66;;;1.60;100.00
72896;BME280;61036;53.224;6.554;2024-01-15T12:10:28;98426.34;;;1.70;100.00
72896;BME280;61036;53.224;6.554;2024-01-15T12:15:30;98414.50;;;1.74;100.00
72896;BME280;61036;53.224;6.554;2024-01-15T12:17:56;98398.47;;;1.87;100.00
72896;BME280;61036;53.224;6.554;2024-01-15T12:20:26;98391.09;;;1.91;100.00
72896;BME280;61036;53.224;6.554;2024-01-15T12:22:52;98380.94;;;2.07;100.00
72896;BME280;61036;53.224;6.554;2024-01-15T12:25:18;98375.38;;;2.21;100.00
72896;BME280;61036;53.224;6.554;2024-01-15T12:27:45;98383.00;;;2.26;100.00
72896;BME280;61036;53.224;6.554;2024-01-15T12:30:12;98383.69;;;2.28;100.00
72896;BME280;61036;53.224;6.554;2024-01-15T12:32:38;98388.31;;;2.26;100.00
72896;BME280;61036;53.224;6.554;2024-01-15T12:35:04;98399.78;;;2.38;100.00
72896;BME280;61036;53.224;6.554;2024-01-15T12:37:30;98420.31;;;2.36;100.00
72896;BME280;61036;53.224;6.554;2024-01-15T12:39:55;98435.41;;;2.58;100.00
72896;BME280;61036;53.224;6.554;2024-01-15T12:42:21;98470.09;;;2.67;100.00
72896;BME280;61036;53.224;6.554;2024-01-15T12:44:47;98501.53;;;2.73;100.00
72896;BME280;61036;53.224;6.554;2024-01-15T12:47:13;98532.47;;;2.86;100.00
72896;BME280;61036;53.224;6.554;2024-01-15T12:49:39;98551.00;;;2.98;100.00
72896;BME280;61036;53.224;6.554;2024-01-15T12:52:09;98565.88;;;3.01;100.00
72896;BME280;61036;53.224;6.554;2024-01-15T12:54:35;98586.19;;;2.91;100.00
72896;BME280;61036;53.224;6.554;2024-01-15T12:57:00;98596.00;;;2.79;100.00
72896;BME280;61036;53.224;6.554;2024-01-15T12:59:26;98605.94;;;2.77;100.00
72896;BME280;61036;53.224;6.554;2024-01-15T13:01:51;98598.19;;;2.74;100.00
72896;BME280;61036;53.224;6.554;2024-01-15T13:04:23;98606.53;;;2.81;100.00
72896;BME280;61036;53.224;6.554;2024-01-15T13:06:50;98619.97;;;2.79;100.00
72896;BME280;61036;53.224;6.554;2024-01-15T13:09:17;98620.22;;;2.87;100.00
72896;BME280;61036;53.224;6.554;2024-01-15T13:11:45;98640.53;;;2.88;100.00
72896;BME280;61036;53.224;6.554;2024-01-15T13:14:11;98668.69;;;2.57;100.00
72896;BME280;61036;53.224;6.554;2024-01-15T13:16:40;98668.41;;;2.49;100.00
72896;BME280;61036;53.224;6.554;2024-01-15T13:19:07;98660.94;;;2.54;100.00
72896;BME280;61036;53.224;6.554;2024-01-15T13:21:33;98668.31;;;2.50;100.00
72896;BME280;61036;53.224;6.554;2024-01-15T13:23:59;98667.94;;;2.44;100.00
72896;BME280;61036;53.224;6.554;2024-01-15T13:26:24;98677.94;;;2.40;100.00
72896;BME280;61036;53.224;6.554;2024-01-15T13:28:50;98671.00;;;2.62;100.00
72896;BME280;61036;53.224;6.554;2024-01-15T13:31:15;98636.00;;;3.34;100.00